Time;durP1;ratioP1;P1;durP2;ratioP2;P2;SDS_P1;SDS_P2;PMS_P1;PMS_P2;Temp;Humidity;BMP_temperature;BMP_pressure;BME280_temperature;BME280_humidity;BME280_pressure;Samples;Min_cycle;Max_cycle;Signal;HPM_P1;HPM_P2
2023/09/09 00:03:34;;;;;;;8.57;7.25;;;;;;;;;;10226271;28;20047;-72
2023/09/09 00:08:27;;;;;;;8.45;7.63;;;;;;;;;;10226454;28;20118;-72
2023/09/09 00:13:19;;;;;;;8.65;7.85;;;;;;;;;;10226208;28;20052;-72
2023/09/09 00:18:11;;;;;;;10.73;7.05;;;;;;;;;;10226746;28;20086;-72
2023/09/09 00:23:07;;;;;;;7.20;6.60;;;;;;;;;;10225498;28;20043;-72
2023/09/09 00:27:59;;;;;;;9.25;6.63;;;;;;;;;;10217642;28;20515;-72
2023/09/09 00:32:51;;;;;;;11.50;7.43;;;;;;;;;;10224802;28;20047;-72
2023/09/09 00:37:43;;;;;;;8.88;7.90;;;;;;;;;;10194041;28;20044;-70
2023/09/09 00:42:35;;;;;;;8.60;6.20;;;;;;;;;;10183175;28;20386;-72
2023/09/09 00:47:27;;;;;;;8.95;6.63;;;;;;;;;;10184153;28;20054;-72
2023/09/09 00:52:19;;;;;;;8.70;7.80;;;;;;;;;;10163768;28;20052;-72
2023/09/09 00:57:11;;;;;;;8.73;6.88;;;;;;;;;;10176303;28;20470;-72
2023/09/09 01:02:03;;;;;;;8.85;7.75;;;;;;;;;;10247769;28;20415;-72
2023/09/09 01:06:58;;;;;;;11.98;6.57;;;;;;;;;;10200629;28;20569;-72
2023/09/09 01:11:50;;;;;;;8.43;7.28;;;;;;;;;;10161890;28;20032;-73
2023/09/09 01:16:42;;;;;;;12.65;8.10;;;;;;;;;;10166020;28;20143;-73
2023/09/09 01:21:34;;;;;;;7.30;6.60;;;;;;;;;;10186813;28;20044;-71
2023/09/09 01:26:26;;;;;;;10.82;7.55;;;;;;;;;;10171247;28;20498;-72
2023/09/09 01:31:18;;;;;;;8.05;7.15;;;;;;;;;;10199260;28;20044;-72
2023/09/09 01:36:11;;;;;;;8.27;6.90;;;;;;;;;;10188227;28;20076;-72
2023/09/09 01:41:03;;;;;;;8.05;7.00;;;;;;;;;;10170988;28;20077;-72
2023/09/09 01:45:57;;;;;;;9.50;6.47;;;;;;;;;;10172823;28;20048;-73
2023/09/09 01:50:49;;;;;;;9.18;6.82;;;;;;;;;;10169979;28;20047;-72
2023/09/09 01:55:41;;;;;;;8.73;7.47;;;;;;;;;;10187124;28;20040;-72
2023/09/09 02:00:33;;;;;;;9.77;6.45;;;;;;;;;;10144956;28;20057;-72
2023/09/09 02:05:25;;;;;;;11.35;7.55;;;;;;;;;;10145961;28;20051;-71
2023/09/09 02:10:18;;;;;;;10.55;7.28;;;;;;;;;;10145004;28;20127;-72
2023/09/09 02:15:11;;;;;;;8.85;6.65;;;;;;;;;;10144348;28;20124;-72
2023/09/09 02:20:05;;;;;;;14.20;6.32;;;;;;;;;;10146201;28;20052;-72
2023/09/09 02:24:58;;;;;;;9.35;7.47;;;;;;;;;;10146223;28;20140;-71
2023/09/09 02:29:50;;;;;;;9.82;6.90;;;;;;;;;;10149038;28;20044;-72
2023/09/09 02:34:42;;;;;;;7.88;7.07;;;;;;;;;;10145143;28;20049;-72
2023/09/09 02:39:34;;;;;;;9.45;6.50;;;;;;;;;;10142511;28;20402;-72
2023/09/09 02:44:26;;;;;;;10.38;6.70;;;;;;;;;;10142467;28;20240;-71
2023/09/09 02:49:17;;;;;;;8.48;6.80;;;;;;;;;;10143372;28;20493;-71
2023/09/09 02:54:10;;;;;;;9.15;7.47;;;;;;;;;;10144047;28;20079;-71
2023/09/09 02:59:01;;;;;;;7.65;6.75;;;;;;;;;;10160916;28;20088;-72
2023/09/09 03:03:54;;;;;;;8.43;6.85;;;;;;;;;;10217334;28;20079;-72
2023/09/09 03:08:46;;;;;;;7.53;6.75;;;;;;;;;;10204370;28;20502;-71
2023/09/09 03:13:38;;;;;;;8.27;6.53;;;;;;;;;;10164687;28;20105;-70
2023/09/09 03:18:30;;;;;;;7.53;6.85;;;;;;;;;;10164917;28;20218;-72
2023/09/09 03:23:22;;;;;;;9.18;7.05;;;;;;;;;;10164947;28;20382;-72
2023/09/09 03:28:14;;;;;;;8.20;7.20;;;;;;;;;;10163622;28;20040;-71
2023/09/09 03:33:07;;;;;;;11.00;6.55;;;;;;;;;;10165032;28;20089;-71
2023/09/09 03:37:59;;;;;;;9.07;6.40;;;;;;;;;;10164370;28;20105;-72
2023/09/09 03:42:51;;;;;;;10.23;7.13;;;;;;;;;;10165038;28;20051;-72
2023/09/09 03:47:43;;;;;;;8.05;7.00;;;;;;;;;;10165356;28;20044;-72
2023/09/09 03:52:35;;;;;;;9.20;6.70;;;;;;;;;;10182688;28;20043;-72
2023/09/09 03:57:27;;;;;;;10.57;8.00;;;;;;;;;;10163527;28;20055;-70
2023/09/09 04:02:19;;;;;;;8.40;6.95;;;;;;;;;;10165700;28;20042;-72
2023/09/09 04:07:12;;;;;;;7.80;7.00;;;;;;;;;;10165411;28;20523;-71
2023/09/09 04:12:04;;;;;;;11.18;7.07;;;;;;;;;;10182909;28;20040;-71
2023/09/09 04:16:56;;;;;;;7.75;7.05;;;;;;;;;;10175946;28;20215;-72
2023/09/09 04:21:51;;;;;;;7.95;7.18;;;;;;;;;;10196998;28;20070;-72
2023/09/09 04:26:43;;;;;;;9.32;7.35;;;;;;;;;;10165002;28;20268;-72
2023/09/09 04:31:36;;;;;;;7.40;6.70;;;;;;;;;;10181835;28;20040;-72
2023/09/09 04:36:28;;;;;;;9.15;6.97;;;;;;;;;;10164032;28;20135;-72
2023/09/09 04:41:20;;;;;;;7.72;6.93;;;;;;;;;;10183190;28;20064;-72
2023/09/09 04:46:12;;;;;;;8.65;7.05;;;;;;;;;;10181832;28;20078;-71
2023/09/09 04:51:04;;;;;;;9.18;6.15;;;;;;;;;;10182571;28;20054;-70
2023/09/09 04:55:57;;;;;;;9.30;6.22;;;;;;;;;;10164325;28;20720;-72
2023/09/09 05:00:49;;;;;;;6.53;5.93;;;;;;;;;;10162295;28;20486;-72
2023/09/09 05:05:41;;;;;;;8.50;6.93;;;;;;;;;;10163306;28;20486;-71
2023/09/09 05:10:34;;;;;;;13.43;6.47;;;;;;;;;;10183975;28;20115;-72
2023/09/09 05:15:27;;;;;;;6.75;6.22;;;;;;;;;;10178791;28;20565;-70
2023/09/09 05:20:19;;;;;;;7.70;6.03;;;;;;;;;;10224714;28;20047;-71
2023/09/09 05:25:11;;;;;;;7.47;6.57;;;;;;;;;;10220451;28;20040;-71
2023/09/09 05:30:04;;;;;;;7.45;6.65;;;;;;;;;;10206697;28;20134;-71
2023/09/09 05:34:56;;;;;;;6.60;6.00;;;;;;;;;;10206148;28;20183;-71
2023/09/09 05:39:48;;;;;;;6.32;5.75;;;;;;;;;;10206868;28;20158;-70
2023/09/09 05:44:40;;;;;;;7.55;6.10;;;;;;;;;;10224514;28;20470;-71
2023/09/09 05:49:32;;;;;;;7.60;5.80;;;;;;;;;;10206479;28;20113;-71
2023/09/09 05:54:32;;;;;;;6.85;5.70;;;;;;;;;;10193647;28;20048;-70
2023/09/09 05:59:25;;;;;;;9.70;6.13;;;;;;;;;;10205464;28;20308;-71
2023/09/09 06:04:17;;;;;;;6.30;5.70;;;;;;;;;;10212909;28;20485;-72
2023/09/09 06:09:10;;;;;;;7.65;5.90;;;;;;;;;;10211446;28;20051;-68
2023/09/09 06:14:02;;;;;;;7.55;6.85;;;;;;;;;;10193835;28;20134;-70
2023/09/09 06:18:54;;;;;;;7.85;6.18;;;;;;;;;;10210628;28;20040;-71
2023/09/09 06:23:46;;;;;;;9.35;6.07;;;;;;;;;;10211028;28;20572;-70
2023/09/09 06:28:38;;;;;;;8.73;6.50;;;;;;;;;;10186291;28;20051;-68
2023/09/09 06:33:31;;;;;;;10.10;6.45;;;;;;;;;;10198057;27;20582;-70
2023/09/09 06:38:23;;;;;;;7.28;6.57;;;;;;;;;;10176043;28;20044;-66
2023/09/09 06:43:18;;;;;;;11.00;7.00;;;;;;;;;;10187445;28;20097;-66
2023/09/09 06:48:10;;;;;;;7.10;6.38;;;;;;;;;;10223742;28;20131;-66
2023/09/09 06:53:02;;;;;;;10.73;8.32;;;;;;;;;;10217475;28;20177;-65
2023/09/09 06:57:54;;;;;;;10.15;6.68;;;;;;;;;;10184640;28;20120;-65
2023/09/09 07:02:46;;;;;;;9.77;7.25;;;;;;;;;;10215681;28;20105;-67
2023/09/09 07:07:38;;;;;;;8.35;6.55;;;;;;;;;;10226159;28;20082;-65
2023/09/09 07:12:33;;;;;;;8.07;7.05;;;;;;;;;;10184716;28;20040;-66
2023/09/09 07:17:25;;;;;;;12.10;7.00;;;;;;;;;;10194233;28;20052;-67
2023/09/09 07:22:17;;;;;;;6.72;6.07;;;;;;;;;;10215568;28;20036;-67
2023/09/09 07:27:09;;;;;;;7.90;6.80;;;;;;;;;;10215056;28;20051;-66
2023/09/09 07:32:01;;;;;;;14.68;7.95;;;;;;;;;;10184578;28;20044;-64
2023/09/09 07:36:53;;;;;;;16.33;7.65;;;;;;;;;;10219536;28;20040;-66
2023/09/09 07:41:45;;;;;;;8.85;6.32;;;;;;;;;;10183362;28;20089;-66
2023/09/09 07:46:36;;;;;;;12.15;6.90;;;;;;;;;;10183067;28;20074;-66
2023/09/09 07:51:28;;;;;;;8.10;6.97;;;;;;;;;;10183074;28;20433;-67
2023/09/09 07:56:20;;;;;;;9.73;7.30;;;;;;;;;;10216707;28;20052;-66
2023/09/09 08:01:13;;;;;;;14.90;9.07;;;;;;;;;;10185900;28;20052;-66
2023/09/09 08:06:06;;;;;;;14.40;7.60;;;;;;;;;;10181519;28;20182;-65
2023/09/09 08:10:58;;;;;;;10.75;7.30;;;;;;;;;;10181336;28;20048;-66
2023/09/09 08:15:50;;;;;;;9.48;6.70;;;;;;;;;;10179582;28;20047;-67
2023/09/09 08:20:42;;;;;;;11.18;8.20;;;;;;;;;;10208182;28;20426;-67
2023/09/09 08:25:34;;;;;;;12.02;7.18;;;;;;;;;;10182715;28;20419;-66
2023/09/09 08:30:26;;;;;;;8.43;7.72;;;;;;;;;;10180390;28;20082;-67
2023/09/09 08:35:18;;;;;;;8.15;7.35;;;;;;;;;;10181315;28;20449;-67
2023/09/09 08:40:10;;;;;;;8.90;6.95;;;;;;;;;;10181705;28;20055;-66
2023/09/09 08:45:26;;;;;;;35.08;10.43;;;;;;;;;;10198468;28;20140;-67
2023/09/09 08:50:18;;;;;;;11.45;8.82;;;;;;;;;;10183530;28;20071;-67
2023/09/09 08:55:10;;;;;;;7.63;6.90;;;;;;;;;;10181290;28;20137;-68
2023/09/09 09:00:05;;;;;;;8.52;7.63;;;;;;;;;;10181802;28;20063;-68
2023/09/09 09:04:58;;;;;;;9.45;6.65;;;;;;;;;;10201628;28;20100;-67
2023/09/09 09:09:50;;;;;;;10.52;8.07;;;;;;;;;;10179120;28;20063;-68
2023/09/09 09:14:46;;;;;;;7.20;6.50;;;;;;;;;;10187316;28;20089;-67
2023/09/09 09:19:38;;;;;;;7.88;7.10;;;;;;;;;;10161900;28;20051;-67
2023/09/09 09:24:43;;;;;;;9.68;6.93;;;;;;;;;;10180016;28;20084;-66
2023/09/09 09:29:40;;;;;;;9.57;6.70;;;;;;;;;;10180611;28;20048;-67
2023/09/09 09:34:33;;;;;;;8.38;6.75;;;;;;;;;;10181667;28;20056;-66
2023/09/09 09:39:33;;;;;;;6.38;5.78;;;;;;;;;;10190333;28;20113;-68
2023/09/09 09:44:25;;;;;;;7.28;6.35;;;;;;;;;;10187433;28;20043;-66
2023/09/09 09:49:17;;;;;;;14.50;7.60;;;;;;;;;;10188485;28;20059;-67
2023/09/09 09:54:09;;;;;;;10.23;6.63;;;;;;;;;;10189036;28;20048;-67
2023/09/09 09:59:01;;;;;;;10.20;6.68;;;;;;;;;;10189394;28;20112;-67
2023/09/09 10:04:02;;;;;;;8.32;5.10;;;;;;;;;;10169049;28;20741;-68
2023/09/09 10:09:08;;;;;;;13.18;5.85;;;;;;;;;;10169532;28;20216;-68
2023/09/09 10:14:07;;;;;;;8.60;5.32;;;;;;;;;;10186402;28;20148;-68
2023/09/09 10:19:00;;;;;;;10.43;6.35;;;;;;;;;;10210995;28;20322;-67
2023/09/09 10:23:54;;;;;;;6.35;5.28;;;;;;;;;;10191307;28;20046;-67
2023/09/09 10:28:47;;;;;;;5.40;4.90;;;;;;;;;;10174093;28;20568;-65
2023/09/09 10:33:42;;;;;;;7.72;5.65;;;;;;;;;;10186785;28;20446;-67
2023/09/09 10:38:34;;;;;;;10.40;7.13;;;;;;;;;;10184703;28;20109;-67
2023/09/09 10:43:26;;;;;;;38.72;9.38;;;;;;;;;;10187444;28;20046;-69
2023/09/09 10:48:21;;;;;;;8.20;5.80;;;;;;;;;;10186050;28;20044;-67
2023/09/09 10:53:20;;;;;;;6.47;5.88;;;;;;;;;;10168878;28;20071;-65
2023/09/09 10:58:17;;;;;;;12.52;6.25;;;;;;;;;;10187557;28;20056;-66
2023/09/09 11:03:13;;;;;;;10.95;6.20;;;;;;;;;;10186996;28;20068;-65
2023/09/09 11:08:28;;;;;;;12.15;6.63;;;;;;;;;;10187388;28;20053;-66
2023/09/09 11:13:20;;;;;;;6.55;5.75;;;;;;;;;;10185187;28;20043;-66
2023/09/09 11:18:12;;;;;;;11.45;5.57;;;;;;;;;;10169052;28;20047;-66
2023/09/09 11:23:04;;;;;;;9.57;6.30;;;;;;;;;;10165940;28;20043;-66
2023/09/09 11:27:56;;;;;;;7.80;6.55;;;;;;;;;;10185101;28;20052;-66
2023/09/09 11:32:49;;;;;;;8.20;6.15;;;;;;;;;;10170039;28;20044;-63
2023/09/09 11:37:42;;;;;;;6.75;5.93;;;;;;;;;;10187460;28;20481;-63
2023/09/09 11:42:33;;;;;;;8.93;5.32;;;;;;;;;;10192877;28;20044;-63
2023/09/09 11:47:25;;;;;;;6.65;5.72;;;;;;;;;;10198671;28;20378;-63
2023/09/09 11:52:21;;;;;;;7.55;5.53;;;;;;;;;;10213608;28;20044;-62
2023/09/09 11:57:13;;;;;;;6.15;5.53;;;;;;;;;;10191312;28;20131;-63
2023/09/09 12:02:05;;;;;;;8.63;5.97;;;;;;;;;;10184590;28;20103;-67
2023/09/09 12:06:58;;;;;;;6.82;5.43;;;;;;;;;;10206426;28;20044;-67
2023/09/09 12:11:50;;;;;;;7.35;6.57;;;;;;;;;;10184913;28;20535;-68
2023/09/09 12:16:45;;;;;;;9.98;5.50;;;;;;;;;;10195717;28;20521;-68
2023/09/09 12:21:48;;;;;;;7.20;5.78;;;;;;;;;;10210650;28;20079;-67
2023/09/09 12:26:50;;;;;;;15.52;8.43;;;;;;;;;;10200359;28;20044;-67
2023/09/09 12:31:55;;;;;;;6.25;5.65;;;;;;;;;;10183033;28;20056;-68
2023/09/09 12:36:49;;;;;;;9.73;6.25;;;;;;;;;;10181777;28;20101;-67
2023/09/09 12:41:40;;;;;;;6.15;5.13;;;;;;;;;;10184657;28;20043;-67
2023/09/09 12:46:32;;;;;;;7.05;6.32;;;;;;;;;;10181183;28;20097;-67
2023/09/09 12:51:28;;;;;;;10.13;6.18;;;;;;;;;;10181595;28;20036;-67
2023/09/09 12:56:20;;;;;;;7.57;5.80;;;;;;;;;;10182176;28;20044;-66
2023/09/09 13:01:12;;;;;;;10.00;6.20;;;;;;;;;;10182521;28;20054;-66
2023/09/09 13:06:06;;;;;;;12.75;5.72;;;;;;;;;;10163903;28;20071;-65
2023/09/09 13:10:57;;;;;;;7.35;5.65;;;;;;;;;;10182951;28;20040;-66
2023/09/09 13:15:50;;;;;;;5.85;5.28;;;;;;;;;;10188429;28;20465;-65
2023/09/09 13:20:42;;;;;;;6.28;5.63;;;;;;;;;;10209501;28;20501;-63
2023/09/09 13:25:34;;;;;;;6.18;5.57;;;;;;;;;;10219171;28;20052;-62
2023/09/09 13:30:26;;;;;;;5.40;4.90;;;;;;;;;;10224317;27;20040;-63
2023/09/09 13:35:18;;;;;;;8.90;5.20;;;;;;;;;;10221437;27;20116;-63
2023/09/09 13:40:10;;;;;;;7.50;5.22;;;;;;;;;;10226708;28;20055;-63
2023/09/09 13:45:03;;;;;;;5.45;4.93;;;;;;;;;;10228264;28;20416;-63
2023/09/09 13:50:02;;;;;;;11.32;5.55;;;;;;;;;;10225912;28;20044;-62
2023/09/09 13:54:54;;;;;;;5.90;5.40;;;;;;;;;;10232793;28;20058;-64
2023/09/09 13:59:46;;;;;;;6.55;5.25;;;;;;;;;;10231395;28;20051;-64
2023/09/09 14:04:38;;;;;;;6.05;4.72;;;;;;;;;;10230698;28;20048;-65
2023/09/09 14:09:30;;;;;;;5.55;5.00;;;;;;;;;;10231597;28;20122;-63
2023/09/09 14:14:23;;;;;;;5.18;4.70;;;;;;;;;;10228291;28;20051;-63
2023/09/09 14:19:14;;;;;;;7.88;5.30;;;;;;;;;;10227473;28;20062;-64
2023/09/09 14:24:06;;;;;;;5.63;5.03;;;;;;;;;;10230413;28;20048;-66
2023/09/09 14:28:58;;;;;;;5.35;4.50;;;;;;;;;;10216751;28;20191;-65
2023/09/09 14:33:51;;;;;;;8.85;4.75;;;;;;;;;;10230582;28;20162;-64
2023/09/09 14:38:43;;;;;;;7.32;4.85;;;;;;;;;;10215928;28;20044;-63
2023/09/09 14:43:35;;;;;;;5.85;4.78;;;;;;;;;;10215988;28;20368;-63
2023/09/09 14:48:27;;;;;;;6.13;5.10;;;;;;;;;;10216300;28;20053;-64
2023/09/09 14:53:19;;;;;;;7.30;5.30;;;;;;;;;;10233588;27;20031;-64
2023/09/09 14:58:11;;;;;;;7.60;4.70;;;;;;;;;;10227983;28;20055;-65
2023/09/09 15:03:03;;;;;;;8.18;5.07;;;;;;;;;;10224880;28;20096;-65
2023/09/09 15:07:55;;;;;;;7.63;4.97;;;;;;;;;;10223401;28;20457;-64
2023/09/09 15:12:47;;;;;;;4.82;4.43;;;;;;;;;;10222037;28;20127;-65
2023/09/09 15:17:38;;;;;;;10.63;5.53;;;;;;;;;;10222429;28;20035;-64
2023/09/09 15:22:36;;;;;;;5.03;4.53;;;;;;;;;;10223857;28;20400;-64
2023/09/09 15:27:28;;;;;;;8.32;4.45;;;;;;;;;;10225917;28;20119;-65
2023/09/09 15:32:20;;;;;;;9.18;4.38;;;;;;;;;;10228325;28;20044;-64
2023/09/09 15:37:12;;;;;;;10.05;4.38;;;;;;;;;;10226863;28;20061;-64
2023/09/09 15:42:04;;;;;;;5.70;4.07;;;;;;;;;;10227930;28;20055;-64
2023/09/09 15:46:56;;;;;;;5.15;3.70;;;;;;;;;;10228324;28;20116;-64
2023/09/09 15:51:48;;;;;;;5.43;4.38;;;;;;;;;;10226638;28;20415;-63
2023/09/09 15:56:40;;;;;;;5.65;4.50;;;;;;;;;;10226377;28;20054;-64
2023/09/09 16:01:32;;;;;;;8.82;4.30;;;;;;;;;;10226460;28;20437;-65
2023/09/09 16:06:24;;;;;;;7.53;4.57;;;;;;;;;;10215936;28;20044;-62
2023/09/09 16:11:16;;;;;;;5.38;4.18;;;;;;;;;;10207544;28;20521;-62
2023/09/09 16:16:09;;;;;;;7.43;5.10;;;;;;;;;;10201823;28;20044;-63
2023/09/09 16:21:01;;;;;;;8.20;4.53;;;;;;;;;;10201426;28;20359;-64
2023/09/09 16:25:53;;;;;;;7.13;5.25;;;;;;;;;;10209478;28;20050;-63
2023/09/09 16:30:45;;;;;;;12.50;4.78;;;;;;;;;;10212460;28;20043;-64
2023/09/09 16:35:40;;;;;;;8.55;5.03;;;;;;;;;;10224865;28;20040;-64
2023/09/09 16:40:32;;;;;;;7.85;5.30;;;;;;;;;;10212576;28;20062;-64
2023/09/09 16:45:24;;;;;;;5.68;4.93;;;;;;;;;;10224249;28;20044;-64
2023/09/09 16:50:16;;;;;;;10.90;4.30;;;;;;;;;;10212679;28;20093;-64
2023/09/09 16:55:08;;;;;;;5.47;4.78;;;;;;;;;;10222165;28;20036;-64
2023/09/09 17:00:00;;;;;;;9.13;7.07;;;;;;;;;;10224074;28;20059;-69
2023/09/09 17:04:52;;;;;;;6.75;4.55;;;;;;;;;;10218818;28;20044;-69
2023/09/09 17:09:44;;;;;;;6.25;4.90;;;;;;;;;;10210410;28;20040;-68
2023/09/09 17:14:36;;;;;;;6.25;4.38;;;;;;;;;;10199319;28;20051;-69
2023/09/09 17:19:28;;;;;;;9.80;4.53;;;;;;;;;;10212934;28;20073;-70
2023/09/09 17:24:23;;;;;;;8.35;5.18;;;;;;;;;;10221302;28;20126;-68
2023/09/09 17:29:15;;;;;;;5.07;4.47;;;;;;;;;;10220348;28;20051;-68
2023/09/09 17:34:07;;;;;;;7.80;5.13;;;;;;;;;;10221262;28;20458;-71
2023/09/09 17:39:04;;;;;;;5.35;4.85;;;;;;;;;;10220477;28;20048;-69
2023/09/09 17:43:56;;;;;;;5.30;4.80;;;;;;;;;;10175360;28;20135;-70
2023/09/09 17:48:48;;;;;;;10.02;6.28;;;;;;;;;;10201828;28;20062;-71
2023/09/09 17:53:40;;;;;;;7.18;4.60;;;;;;;;;;10219025;28;20040;-70
2023/09/09 17:58:32;;;;;;;6.28;5.50;;;;;;;;;;10212244;28;20067;-70
2023/09/09 18:03:24;;;;;;;7.75;5.78;;;;;;;;;;10228683;28;20090;-70
2023/09/09 18:08:16;;;;;;;6.65;5.10;;;;;;;;;;10212204;28;20048;-70
2023/09/09 18:13:08;;;;;;;6.82;5.78;;;;;;;;;;10187237;28;20119;-70
2023/09/09 18:18:00;;;;;;;9.75;5.10;;;;;;;;;;10184488;28;20127;-70
2023/09/09 18:22:52;;;;;;;8.02;6.53;;;;;;;;;;10188140;28;20052;-70
2023/09/09 18:27:44;;;;;;;6.03;5.43;;;;;;;;;;10198963;28;20044;-69
2023/09/09 18:32:35;;;;;;;7.90;5.60;;;;;;;;;;10218614;28;20119;-70
2023/09/09 18:37:30;;;;;;;7.30;5.35;;;;;;;;;;10211411;28;20060;-70
2023/09/09 18:42:22;;;;;;;9.45;5.45;;;;;;;;;;10201524;28;20043;-69
2023/09/09 18:47:14;;;;;;;7.40;5.20;;;;;;;;;;10206604;28;20152;-70
2023/09/09 18:52:06;;;;;;;5.72;4.97;;;;;;;;;;10211827;28;20426;-70
2023/09/09 18:56:58;;;;;;;9.23;6.25;;;;;;;;;;10209667;28;20044;-70
2023/09/09 19:01:51;;;;;;;8.93;5.05;;;;;;;;;;10186495;28;20497;-69
2023/09/09 19:06:43;;;;;;;11.15;6.18;;;;;;;;;;10195022;28;20040;-70
2023/09/09 19:11:35;;;;;;;6.47;5.88;;;;;;;;;;10194727;28;20048;-70
2023/09/09 19:16:27;;;;;;;7.45;5.82;;;;;;;;;;10187237;28;20051;-70
2023/09/09 19:21:19;;;;;;;6.03;5.13;;;;;;;;;;10221589;28;20054;-69
2023/09/09 19:26:11;;;;;;;8.10;6.00;;;;;;;;;;10203813;28;20064;-70
2023/09/09 19:31:03;;;;;;;8.80;5.00;;;;;;;;;;10184770;28;20100;-69
2023/09/09 19:35:55;;;;;;;42.38;7.43;;;;;;;;;;10187795;28;20105;-69
2023/09/09 19:40:48;;;;;;;5.88;4.95;;;;;;;;;;10182171;28;20058;-69
2023/09/09 19:45:41;;;;;;;6.03;5.20;;;;;;;;;;10181365;28;20075;-69
2023/09/09 19:50:33;;;;;;;6.50;5.78;;;;;;;;;;10182611;28;20040;-70
2023/09/09 19:55:26;;;;;;;5.85;4.97;;;;;;;;;;10181932;28;20435;-68
2023/09/09 20:00:18;;;;;;;7.00;6.30;;;;;;;;;;10182755;28;20463;-69
2023/09/09 20:05:11;;;;;;;6.22;5.45;;;;;;;;;;10183898;28;20040;-69
2023/09/09 20:10:10;;;;;;;7.05;6.18;;;;;;;;;;10183069;28;20043;-69
2023/09/09 20:15:03;;;;;;;7.13;5.38;;;;;;;;;;10184353;28;20079;-70
2023/09/09 20:19:55;;;;;;;9.02;5.28;;;;;;;;;;10183746;28;20048;-68
2023/09/09 20:24:47;;;;;;;7.97;5.00;;;;;;;;;;10183790;28;20781;-69
2023/09/09 20:29:39;;;;;;;7.95;5.72;;;;;;;;;;10183443;28;20093;-69
2023/09/09 20:34:31;;;;;;;11.77;5.00;;;;;;;;;;10183573;28;20446;-69
2023/09/09 20:39:25;;;;;;;6.65;5.97;;;;;;;;;;10180050;28;20054;-69
2023/09/09 20:44:17;;;;;;;8.40;4.97;;;;;;;;;;10181318;28;20063;-69
2023/09/09 20:49:09;;;;;;;8.90;5.13;;;;;;;;;;10181336;28;20040;-69
2023/09/09 20:54:01;;;;;;;8.60;5.47;;;;;;;;;;10181421;28;20036;-69
2023/09/09 20:58:53;;;;;;;6.45;5.80;;;;;;;;;;10180924;28;20067;-67
2023/09/09 21:03:45;;;;;;;8.32;5.13;;;;;;;;;;10180265;28;20089;-69
2023/09/09 21:08:37;;;;;;;5.80;5.05;;;;;;;;;;10183142;28;20046;-69
2023/09/09 21:13:29;;;;;;;7.57;5.45;;;;;;;;;;10179596;28;20032;-68
2023/09/09 21:18:21;;;;;;;6.40;5.43;;;;;;;;;;10180025;28;20101;-69
2023/09/09 21:23:13;;;;;;;8.90;5.18;;;;;;;;;;10180868;28;20138;-69
2023/09/09 21:28:05;;;;;;;6.18;4.88;;;;;;;;;;10181218;28;20040;-69
2023/09/09 21:32:58;;;;;;;10.82;4.93;;;;;;;;;;10184899;28;20047;-68
2023/09/09 21:37:50;;;;;;;6.18;5.57;;;;;;;;;;10188699;28;20089;-69
2023/09/09 21:42:42;;;;;;;7.22;5.50;;;;;;;;;;10187397;28;20105;-69
2023/09/09 21:47:34;;;;;;;9.88;5.40;;;;;;;;;;10187552;28;20212;-69
2023/09/09 21:52:26;;;;;;;9.23;5.30;;;;;;;;;;10191307;28;20081;-69
2023/09/09 21:57:18;;;;;;;7.75;5.57;;;;;;;;;;10188008;28;20098;-68
2023/09/09 22:02:11;;;;;;;6.60;5.13;;;;;;;;;;10191516;28;20470;-69
2023/09/09 22:07:03;;;;;;;6.90;5.47;;;;;;;;;;10202773;28;20052;-69
2023/09/09 22:11:56;;;;;;;10.10;6.82;;;;;;;;;;10189380;28;20036;-69
2023/09/09 22:16:48;;;;;;;6.07;5.47;;;;;;;;;;10185778;28;20044;-70
2023/09/09 22:21:40;;;;;;;6.75;5.15;;;;;;;;;;10190032;28;20449;-70
2023/09/09 22:26:32;;;;;;;5.88;5.35;;;;;;;;;;10186994;28;20420;-70
2023/09/09 22:31:24;;;;;;;8.60;5.63;;;;;;;;;;10189399;28;20123;-71
2023/09/09 22:36:17;;;;;;;5.70;5.20;;;;;;;;;;10222521;28;20043;-69
2023/09/09 22:41:09;;;;;;;5.53;4.53;;;;;;;;;;10212100;28;20396;-70
2023/09/09 22:46:04;;;;;;;5.88;5.05;;;;;;;;;;10205803;27;20032;-69
2023/09/09 22:51:05;;;;;;;6.35;5.70;;;;;;;;;;10214920;28;20051;-70
2023/09/09 22:55:58;;;;;;;6.78;5.50;;;;;;;;;;10209909;28;20127;-70
2023/09/09 23:00:56;;;;;;;7.22;5.00;;;;;;;;;;10217793;28;20060;-70
2023/09/09 23:05:52;;;;;;;9.13;6.07;;;;;;;;;;10224021;28;20346;-70
2023/09/09 23:10:44;;;;;;;11.25;5.00;;;;;;;;;;10225240;28;20123;-70
2023/09/09 23:15:37;;;;;;;7.05;5.03;;;;;;;;;;10223974;28;20036;-69
2023/09/09 23:20:34;;;;;;;9.27;5.95;;;;;;;;;;10223658;28;20067;-70
2023/09/09 23:25:26;;;;;;;6.45;5.55;;;;;;;;;;10227599;28;20085;-70
2023/09/09 23:30:19;;;;;;;6.28;5.45;;;;;;;;;;10212481;28;20077;-70
2023/09/09 23:35:11;;;;;;;8.25;5.05;;;;;;;;;;10222303;28;20044;-71
2023/09/09 23:40:08;;;;;;;5.30;4.80;;;;;;;;;;10227076;28;20545;-71
2023/09/09 23:45:00;;;;;;;10.60;5.70;;;;;;;;;;10225743;28;20094;-70
2023/09/09 23:49:52;;;;;;;10.00;5.35;;;;;;;;;;10226823;28;20043;-69
2023/09/09 23:54:44;;;;;;;5.95;5.35;;;;;;;;;;10226167;28;20050;-70
2023/09/09 23:59:36;;;;;;;5.22;4.63;;;;;;;;;;10226778;28;20124;-71
